sensor_id;sensor_type;location;lat;lon;timestamp;temperature;humidity
67275;DHT22;55463;52.324;5.122;2022-11-21T00:02:23;2.50;99.06
67275;DHT22;55463;52.324;5.122;2022-11-21T00:04:48;2.52;99.17
67275;DHT22;55463;52.324;5.122;2022-11-21T00:07:13;2.51;99.54
67275;DHT22;55463;52.324;5.122;2022-11-21T00:09:39;2.52;99.20
67275;DHT22;55463;52.324;5.122;2022-11-21T00:12:04;2.50;99.53
67275;DHT22;55463;52.324;5.122;2022-11-21T00:14:30;2.58;99.99
67275;DHT22;55463;52.324;5.122;2022-11-21T00:16:55;2.54;99.77
67275;DHT22;55463;52.324;5.122;2022-11-21T00:19:21;2.57;99.99
67275;DHT22;55463;52.324;5.122;2022-11-21T00:21:46;2.61;99.99
67275;DHT22;55463;52.324;5.122;2022-11-21T00:24:11;2.64;99.86
67275;DHT22;55463;52.324;5.122;2022-11-21T00:26:37;2.64;99.99
67275;DHT22;55463;52.324;5.122;2022-11-21T00:29:03;2.69;99.99
67275;DHT22;55463;52.324;5.122;2022-11-21T00:31:28;2.68;99.99
67275;DHT22;55463;52.324;5.122;2022-11-21T00:33:53;2.69;99.99
67275;DHT22;55463;52.324;5.122;2022-11-21T00:36:18;2.72;99.71
67275;DHT22;55463;52.324;5.122;2022-11-21T00:38:44;2.75;99.71
67275;DHT22;55463;52.324;5.122;2022-11-21T00:41:09;2.74;99.95
67275;DHT22;55463;52.324;5.122;2022-11-21T00:43:35;2.74;99.60
67275;DHT22;55463;52.324;5.122;2022-11-21T00:46:00;2.72;99.59
67275;DHT22;55463;52.324;5.122;2022-11-21T00:48:27;2.77;99.48
67275;DHT22;55463;52.324;5.122;2022-11-21T00:50:53;2.75;99.68
67275;DHT22;55463;52.324;5.122;2022-11-21T00:53:18;2.77;99.01
67275;DHT22;55463;52.324;5.122;2022-11-21T00:55:43;2.75;99.03
67275;DHT22;55463;52.324;5.122;2022-11-21T00:58:09;2.74;98.96
67275;DHT22;55463;52.324;5.122;2022-11-21T01:00:34;2.74;99.09
67275;DHT22;55463;52.324;5.122;2022-11-21T01:03:00;2.71;99.47
67275;DHT22;55463;52.324;5.122;2022-11-21T01:05:26;2.77;99.60
67275;DHT22;55463;52.324;5.122;2022-11-21T01:07:51;2.72;99.50
67275;DHT22;55463;52.324;5.122;2022-11-21T01:10:16;2.72;99.40
67275;DHT22;55463;52.324;5.122;2022-11-21T01:12:42;2.72;99.18
67275;DHT22;55463;52.324;5.122;2022-11-21T01:15:08;2.65;98.44
67275;DHT22;55463;52.324;5.122;2022-11-21T01:17:34;2.65;98.79
67275;DHT22;55463;52.324;5.122;2022-11-21T01:19:59;2.62;98.66
67275;DHT22;55463;52.324;5.122;2022-11-21T01:22:25;2.54;98.84
67275;DHT22;55463;52.324;5.122;2022-11-21T01:24:50;2.57;99.22
67275;DHT22;55463;52.324;5.122;2022-11-21T01:27:15;2.52;99.00
67275;DHT22;55463;52.324;5.122;2022-11-21T01:29:41;2.55;99.00
67275;DHT22;55463;52.324;5.122;2022-11-21T01:32:06;2.57;99.00
67275;DHT22;55463;52.324;5.122;2022-11-21T01:34:32;2.52;99.02
67275;DHT22;55463;52.324;5.122;2022-11-21T01:36:57;2.57;99.23
67275;DHT22;55463;52.324;5.122;2022-11-21T01:39:22;2.57;99.35
67275;DHT22;55463;52.324;5.122;2022-11-21T01:41:48;2.61;99.29
67275;DHT22;55463;52.324;5.122;2022-11-21T01:46:48;2.62;99.01
67275;DHT22;55463;52.324;5.122;2022-11-21T01:49:17;2.62;99.23
67275;DHT22;55463;52.324;5.122;2022-11-21T01:52:00;2.64;99.45
67275;DHT22;55463;52.324;5.122;2022-11-21T01:54:50;2.64;99.10
67275;DHT22;55463;52.324;5.122;2022-11-21T02:02:58;2.64;99.47
67275;DHT22;55463;52.324;5.122;2022-11-21T02:05:27;2.64;99.30
67275;DHT22;55463;52.324;5.122;2022-11-21T02:07:57;2.64;99.21
67275;DHT22;55463;52.324;5.122;2022-11-21T02:10:26;2.66;99.38
67275;DHT22;55463;52.324;5.122;2022-11-21T02:12:54;2.65;99.04
67275;DHT22;55463;52.324;5.122;2022-11-21T02:15:22;2.65;99.60
67275;DHT22;55463;52.324;5.122;2022-11-21T02:17:47;2.64;99.38
67275;DHT22;55463;52.324;5.122;2022-11-21T02:20:15;2.64;98.73
67275;DHT22;55463;52.324;5.122;2022-11-21T02:23:01;2.58;98.70
67275;DHT22;55463;52.324;5.122;2022-11-21T02:25:30;2.54;98.86
67275;DHT22;55463;52.324;5.122;2022-11-21T02:27:58;2.52;98.55
67275;DHT22;55463;52.324;5.122;2022-11-21T02:30:26;2.48;98.71
67275;DHT22;55463;52.324;5.122;2022-11-21T02:32:52;2.45;98.97
67275;DHT22;55463;52.324;5.122;2022-11-21T02:35:18;2.47;98.85
67275;DHT22;55463;52.324;5.122;2022-11-21T02:37:58;2.45;98.92
67275;DHT22;55463;52.324;5.122;2022-11-21T02:40:27;2.44;98.76
67275;DHT22;55463;52.324;5.122;2022-11-21T02:43:05;2.41;98.98
67275;DHT22;55463;52.324;5.122;2022-11-21T02:45:34;2.40;98.95
67275;DHT22;55463;52.324;5.122;2022-11-21T02:48:02;2.38;99.13
67275;DHT22;55463;52.324;5.122;2022-11-21T02:50:29;2.34;98.89
67275;DHT22;55463;52.324;5.122;2022-11-21T02:52:55;2.29;99.17
67275;DHT22;55463;52.324;5.122;2022-11-21T02:55:22;2.24;99.48
67275;DHT22;55463;52.324;5.122;2022-11-21T02:57:47;2.23;99.52
67275;DHT22;55463;52.324;5.122;2022-11-21T03:00:13;2.20;99.48
67275;DHT22;55463;52.324;5.122;2022-11-21T03:02:39;2.20;99.58
67275;DHT22;55463;52.324;5.122;2022-11-21T03:05:08;2.22;99.74
67275;DHT22;55463;52.324;5.122;2022-11-21T03:07:34;2.24;99.70
67275;DHT22;55463;52.324;5.122;2022-11-21T03:10:00;2.23;99.75
67275;DHT22;55463;52.324;5.122;2022-11-21T03:12:25;2.26;99.62
67275;DHT22;55463;52.324;5.122;2022-11-21T03:14:51;2.26;99.60
67275;DHT22;55463;52.324;5.122;2022-11-21T03:17:16;2.27;99.96
67275;DHT22;55463;52.324;5.122;2022-11-21T03:19:41;2.29;99.99
67275;DHT22;55463;52.324;5.122;2022-11-21T03:22:07;2.26;99.79
67275;DHT22;55463;52.324;5.122;2022-11-21T03:24:33;2.24;99.84
67275;DHT22;55463;52.324;5.122;2022-11-21T03:26:59;2.29;99.62
67275;DHT22;55463;52.324;5.122;2022-11-21T03:29:24;2.26;99.41
67275;DHT22;55463;52.324;5.122;2022-11-21T03:31:50;2.22;99.66
67275;DHT22;55463;52.324;5.122;2022-11-21T03:34:15;2.19;99.58
67275;DHT22;55463;52.324;5.122;2022-11-21T03:36:40;2.17;99.90
67275;DHT22;55463;52.324;5.122;2022-11-21T03:39:06;2.17;99.70
67275;DHT22;55463;52.324;5.122;2022-11-21T03:41:32;2.19;99.87
67275;DHT22;55463;52.324;5.122;2022-11-21T03:44:05;2.17;99.42
67275;DHT22;55463;52.324;5.122;2022-11-21T03:46:33;2.14;99.75
67275;DHT22;55463;52.324;5.122;2022-11-21T03:48:59;2.13;99.50
67275;DHT22;55463;52.324;5.122;2022-11-21T03:51:25;2.09;99.76
67275;DHT22;55463;52.324;5.122;2022-11-21T03:53:50;2.13;99.76
67275;DHT22;55463;52.324;5.122;2022-11-21T03:56:16;2.10;99.99
67275;DHT22;55463;52.324;5.122;2022-11-21T03:58:42;2.14;99.74
67275;DHT22;55463;52.324;5.122;2022-11-21T04:01:07;2.10;99.64
67275;DHT22;55463;52.324;5.122;2022-11-21T04:03:33;2.12;99.76
67275;DHT22;55463;52.324;5.122;2022-11-21T04:05:59;2.09;99.80
67275;DHT22;55463;52.324;5.122;2022-11-21T04:08:24;2.07;99.66
67275;DHT22;55463;52.324;5.122;2022-11-21T04:10:51;2.06;99.69
67275;DHT22;55463;52.324;5.122;2022-11-21T04:13:17;2.06;99.90
67275;DHT22;55463;52.324;5.122;2022-11-21T04:15:43;2.05;99.62
67275;DHT22;55463;52.324;5.122;2022-11-21T04:18:10;2.06;99.86
67275;DHT22;55463;52.324;5.122;2022-11-21T04:20:36;2.05;99.84
67275;DHT22;55463;52.324;5.122;2022-11-21T04:23:01;2.07;99.68
67275;DHT22;55463;52.324;5.122;2022-11-21T04:25:27;2.07;99.66
67275;DHT22;55463;52.324;5.122;2022-11-21T04:27:56;2.03;99.73
67275;DHT22;55463;52.324;5.122;2022-11-21T04:30:21;2.06;99.80
67275;DHT22;55463;52.324;5.122;2022-11-21T04:32:49;2.06;99.88
67275;DHT22;55463;52.324;5.122;2022-11-21T04:35:14;2.06;99.83
67275;DHT22;55463;52.324;5.122;2022-11-21T04:37:40;2.10;99.95
67275;DHT22;55463;52.324;5.122;2022-11-21T04:40:06;2.12;99.99
67275;DHT22;55463;52.324;5.122;2022-11-21T04:42:31;2.12;99.99
67275;DHT22;55463;52.324;5.122;2022-11-21T04:44:56;2.12;99.99
67275;DHT22;55463;52.324;5.122;2022-11-21T04:47:22;2.17;99.97
67275;DHT22;55463;52.324;5.122;2022-11-21T04:49:47;2.19;99.74
67275;DHT22;55463;52.324;5.122;2022-11-21T04:52:12;2.14;99.66
67275;DHT22;55463;52.324;5.122;2022-11-21T04:54:38;2.14;99.86
67275;DHT22;55463;52.324;5.122;2022-11-21T04:57:03;2.13;99.89
67275;DHT22;55463;52.324;5.122;2022-11-21T04:59:28;2.16;99.99
67275;DHT22;55463;52.324;5.122;2022-11-21T05:01:54;2.13;99.92
67275;DHT22;55463;52.324;5.122;2022-11-21T05:04:19;2.14;99.99
67275;DHT22;55463;52.324;5.122;2022-11-21T05:06:44;2.14;99.99
67275;DHT22;55463;52.324;5.122;2022-11-21T05:09:10;2.17;99.99
67275;DHT22;55463;52.324;5.122;2022-11-21T05:11:35;2.13;99.99
67275;DHT22;55463;52.324;5.122;2022-11-21T05:14:19;2.16;99.96
67275;DHT22;55463;52.324;5.122;2022-11-21T05:16:44;2.13;99.99
67275;DHT22;55463;52.324;5.122;2022-11-21T05:19:10;2.13;99.99
67275;DHT22;55463;52.324;5.122;2022-11-21T05:21:35;2.14;99.99
67275;DHT22;55463;52.324;5.122;2022-11-21T05:24:00;2.17;99.99
67275;DHT22;55463;52.324;5.122;2022-11-21T05:26:26;2.19;99.99
67275;DHT22;55463;52.324;5.122;2022-11-21T05:28:51;2.19;99.99
67275;DHT22;55463;52.324;5.122;2022-11-21T05:31:16;2.20;99.99
67275;DHT22;55463;52.324;5.122;2022-11-21T05:33:42;2.20;99.99
67275;DHT22;55463;52.324;5.122;2022-11-21T05:36:07;2.24;99.99
67275;DHT22;55463;52.324;5.122;2022-11-21T05:38:32;2.23;99.99
67275;DHT22;55463;52.324;5.122;2022-11-21T05:40:58;2.24;99.99
67275;DHT22;55463;52.324;5.122;2022-11-21T05:43:23;2.24;99.99
67275;DHT22;55463;52.324;5.122;2022-11-21T05:46:07;2.30;99.99
67275;DHT22;55463;52.324;5.122;2022-11-21T05:48:32;2.27;99.99
67275;DHT22;55463;52.324;5.122;2022-11-21T05:51:00;2.29;99.99
67275;DHT22;55463;52.324;5.122;2022-11-21T05:53:26;2.30;99.99
67275;DHT22;55463;52.324;5.122;2022-11-21T05:55:51;2.34;99.99
67275;DHT22;55463;52.324;5.122;2022-11-21T05:58:16;2.32;99.90
67275;DHT22;55463;52.324;5.122;2022-11-21T06:00:42;2.30;99.99
67275;DHT22;55463;52.324;5.122;2022-11-21T06:03:09;2.33;99.96
67275;DHT22;55463;52.324;5.122;2022-11-21T06:05:58;2.32;99.89
67275;DHT22;55463;52.324;5.122;2022-11-21T06:08:25;2.30;99.93
67275;DHT22;55463;52.324;5.122;2022-11-21T06:10:51;2.30;99.93
67275;DHT22;55463;52.324;5.122;2022-11-21T06:13:16;2.29;99.84
67275;DHT22;55463;52.324;5.122;2022-11-21T06:18:12;2.29;99.99
67275;DHT22;55463;52.324;5.122;2022-11-21T06:20:38;2.26;99.99
67275;DHT22;55463;52.324;5.122;2022-11-21T06:23:03;2.32;99.99
67275;DHT22;55463;52.324;5.122;2022-11-21T06:25:28;2.29;99.99
67275;DHT22;55463;52.324;5.122;2022-11-21T06:27:54;2.29;99.99
67275;DHT22;55463;52.324;5.122;2022-11-21T06:30:19;2.29;99.99
67275;DHT22;55463;52.324;5.122;2022-11-21T06:32:45;2.30;99.92
67275;DHT22;55463;52.324;5.122;2022-11-21T06:35:10;2.27;99.99
67275;DHT22;55463;52.324;5.122;2022-11-21T06:37:35;2.29;99.99
67275;DHT22;55463;52.324;5.122;2022-11-21T06:40:01;2.32;99.99
67275;DHT22;55463;52.324;5.122;2022-11-21T06:42:26;2.34;99.99
67275;DHT22;55463;52.324;5.122;2022-11-21T06:44:51;2.36;99.99
67275;DHT22;55463;52.324;5.122;2022-11-21T06:47:17;2.37;99.99
67275;DHT22;55463;52.324;5.122;2022-11-21T06:49:42;2.37;99.99
67275;DHT22;55463;52.324;5.122;2022-11-21T06:52:08;2.37;99.99
67275;DHT22;55463;52.324;5.122;2022-11-21T06:54:33;2.38;99.99
67275;DHT22;55463;52.324;5.122;2022-11-21T06:56:58;2.41;99.99
67275;DHT22;55463;52.324;5.122;2022-11-21T06:59:24;2.44;99.99
67275;DHT22;55463;52.324;5.122;2022-11-21T07:01:49;2.43;99.99
67275;DHT22;55463;52.324;5.122;2022-11-21T07:04:14;2.44;99.99
67275;DHT22;55463;52.324;5.122;2022-11-21T07:06:40;2.47;99.99
67275;DHT22;55463;52.324;5.122;2022-11-21T07:09:05;2.48;99.99
67275;DHT22;55463;52.324;5.122;2022-11-21T07:11:30;2.51;99.99
67275;DHT22;55463;52.324;5.122;2022-11-21T07:13:56;2.51;99.99
67275;DHT22;55463;52.324;5.122;2022-11-21T07:16:21;2.54;99.99
67275;DHT22;55463;52.324;5.122;2022-11-21T07:18:50;2.58;99.99
67275;DHT22;55463;52.324;5.122;2022-11-21T07:21:15;2.57;99.99
67275;DHT22;55463;52.324;5.122;2022-11-21T07:23:40;2.60;99.99
67275;DHT22;55463;52.324;5.122;2022-11-21T07:26:07;2.61;99.99
67275;DHT22;55463;52.324;5.122;2022-11-21T07:28:34;2.62;99.99
67275;DHT22;55463;52.324;5.122;2022-11-21T07:31:00;2.65;99.99
67275;DHT22;55463;52.324;5.122;2022-11-21T07:33:25;2.66;99.99
67275;DHT22;55463;52.324;5.122;2022-11-21T07:35:51;2.71;99.99
67275;DHT22;55463;52.324;5.122;2022-11-21T07:38:19;2.74;99.99
67275;DHT22;55463;52.324;5.122;2022-11-21T07:40:44;2.77;99.99
67275;DHT22;55463;52.324;5.122;2022-11-21T07:43:10;2.79;99.99
67275;DHT22;55463;52.324;5.122;2022-11-21T07:45:35;2.86;99.99
67275;DHT22;55463;52.324;5.122;2022-11-21T07:48:04;2.86;99.99
67275;DHT22;55463;52.324;5.122;2022-11-21T07:50:30;2.89;99.99
67275;DHT22;55463;52.324;5.122;2022-11-21T07:53:00;2.96;99.99
67275;DHT22;55463;52.324;5.122;2022-11-21T07:55:26;3.00;99.99
67275;DHT22;55463;52.324;5.122;2022-11-21T08:00:24;3.05;99.99
67275;DHT22;55463;52.324;5.122;2022-11-21T08:02:49;3.07;99.99
67275;DHT22;55463;52.324;5.122;2022-11-21T08:05:15;3.09;99.99
67275;DHT22;55463;52.324;5.122;2022-11-21T08:07:40;3.16;99.99
67275;DHT22;55463;52.324;5.122;2022-11-21T08:10:05;3.16;99.99
67275;DHT22;55463;52.324;5.122;2022-11-21T08:12:31;3.19;99.99
67275;DHT22;55463;52.324;5.122;2022-11-21T08:14:57;3.23;99.99
67275;DHT22;55463;52.324;5.122;2022-11-21T08:17:25;3.27;99.99
67275;DHT22;55463;52.324;5.122;2022-11-21T08:19:50;3.30;99.99
67275;DHT22;55463;52.324;5.122;2022-11-21T08:22:15;3.33;99.99
67275;DHT22;55463;52.324;5.122;2022-11-21T08:24:41;3.38;99.99
67275;DHT22;55463;52.324;5.122;2022-11-21T08:27:06;3.37;99.99
67275;DHT22;55463;52.324;5.122;2022-11-21T08:29:31;3.40;99.99
67275;DHT22;55463;52.324;5.122;2022-11-21T08:31:57;3.41;99.99
67275;DHT22;55463;52.324;5.122;2022-11-21T08:34:22;3.42;99.99
67275;DHT22;55463;52.324;5.122;2022-11-21T08:36:47;3.45;99.99
67275;DHT22;55463;52.324;5.122;2022-11-21T08:39:13;3.44;99.99
67275;DHT22;55463;52.324;5.122;2022-11-21T08:41:38;3.47;99.99
67275;DHT22;55463;52.324;5.122;2022-11-21T08:44:22;3.51;99.99
67275;DHT22;55463;52.324;5.122;2022-11-21T08:46:48;3.51;99.99
67275;DHT22;55463;52.324;5.122;2022-11-21T08:49:13;3.55;99.99
67275;DHT22;55463;52.324;5.122;2022-11-21T08:51:39;3.54;99.99
67275;DHT22;55463;52.324;5.122;2022-11-21T08:54:04;3.65;99.99
67275;DHT22;55463;52.324;5.122;2022-11-21T08:56:30;3.71;99.99
67275;DHT22;55463;52.324;5.122;2022-11-21T08:58:55;3.75;99.99
67275;DHT22;55463;52.324;5.122;2022-11-21T09:01:21;3.82;99.99
67275;DHT22;55463;52.324;5.122;2022-11-21T09:03:47;3.89;99.99
67275;DHT22;55463;52.324;5.122;2022-11-21T09:06:12;3.92;99.99
67275;DHT22;55463;52.324;5.122;2022-11-21T09:08:37;3.97;99.99
67275;DHT22;55463;52.324;5.122;2022-11-21T09:11:07;4.04;99.99
67275;DHT22;55463;52.324;5.122;2022-11-21T09:13:34;4.04;99.99
67275;DHT22;55463;52.324;5.122;2022-11-21T09:16:00;4.06;99.99
67275;DHT22;55463;52.324;5.122;2022-11-21T09:18:44;4.09;99.99
67275;DHT22;55463;52.324;5.122;2022-11-21T09:21:19;4.14;99.99
67275;DHT22;55463;52.324;5.122;2022-11-21T09:23:45;4.17;99.99
67275;DHT22;55463;52.324;5.122;2022-11-21T09:26:10;4.17;99.99
67275;DHT22;55463;52.324;5.122;2022-11-21T09:28:36;4.25;99.99
67275;DHT22;55463;52.324;5.122;2022-11-21T09:31:02;4.25;99.99
67275;DHT22;55463;52.324;5.122;2022-11-21T09:33:28;4.27;99.99
67275;DHT22;55463;52.324;5.122;2022-11-21T09:35:54;4.25;99.99
67275;DHT22;55463;52.324;5.122;2022-11-21T09:38:21;4.25;99.99
67275;DHT22;55463;52.324;5.122;2022-11-21T09:40:47;4.29;99.99
67275;DHT22;55463;52.324;5.122;2022-11-21T09:43:35;4.40;99.99
67275;DHT22;55463;52.324;5.122;2022-11-21T09:46:14;4.48;99.99
67275;DHT22;55463;52.324;5.122;2022-11-21T09:48:47;4.58;99.99
67275;DHT22;55463;52.324;5.122;2022-11-21T09:51:16;4.62;99.99
67275;DHT22;55463;52.324;5.122;2022-11-21T09:53:59;4.69;99.99
67275;DHT22;55463;52.324;5.122;2022-11-21T09:56:30;4.76;99.99
67275;DHT22;55463;52.324;5.122;2022-11-21T10:01:40;4.87;99.99
67275;DHT22;55463;52.324;5.122;2022-11-21T10:04:06;4.96;99.99
67275;DHT22;55463;52.324;5.122;2022-11-21T10:06:50;4.97;99.99
67275;DHT22;55463;52.324;5.122;2022-11-21T10:12:04;5.01;99.99
67275;DHT22;55463;52.324;5.122;2022-11-21T10:26:13;5.23;99.99
67275;DHT22;55463;52.324;5.122;2022-11-21T10:28:45;5.23;99.99
67275;DHT22;55463;52.324;5.122;2022-11-21T10:31:13;5.24;99.99
67275;DHT22;55463;52.324;5.122;2022-11-21T10:33:40;5.26;99.99
67275;DHT22;55463;52.324;5.122;2022-11-21T10:36:29;5.31;99.99
67275;DHT22;55463;52.324;5.122;2022-11-21T10:38:59;5.28;99.99
67275;DHT22;55463;52.324;5.122;2022-11-21T10:41:46;5.32;99.99
67275;DHT22;55463;52.324;5.122;2022-11-21T10:44:26;5.38;99.99
67275;DHT22;55463;52.324;5.122;2022-11-21T10:47:19;5.44;99.99
67275;DHT22;55463;52.324;5.122;2022-11-21T10:49:56;5.48;99.99
67275;DHT22;55463;52.324;5.122;2022-11-21T10:52:24;5.54;99.99
67275;DHT22;55463;52.324;5.122;2022-11-21T10:57:35;5.59;99.99
67275;DHT22;55463;52.324;5.122;2022-11-21T11:00:23;5.70;99.99
67275;DHT22;55463;52.324;5.122;2022-11-21T11:03:00;5.80;99.99
67275;DHT22;55463;52.324;5.122;2022-11-21T11:05:38;5.87;99.99
67275;DHT22;55463;52.324;5.122;2022-11-21T11:08:11;5.89;99.99
67275;DHT22;55463;52.324;5.122;2022-11-21T11:10:44;5.96;99.99
67275;DHT22;55463;52.324;5.122;2022-11-21T11:13:18;5.89;99.95
67275;DHT22;55463;52.324;5.122;2022-11-21T11:18:23;5.93;99.99
67275;DHT22;55463;52.324;5.122;2022-11-21T11:20:49;5.94;99.99
67275;DHT22;55463;52.324;5.122;2022-11-21T11:23:16;5.99;99.99
67275;DHT22;55463;52.324;5.122;2022-11-21T11:25:59;6.02;99.99
67275;DHT22;55463;52.324;5.122;2022-11-21T11:28:26;6.03;99.99
67275;DHT22;55463;52.324;5.122;2022-11-21T11:30:57;6.07;99.99
67275;DHT22;55463;52.324;5.122;2022-11-21T11:33:36;6.20;99.99
67275;DHT22;55463;52.324;5.122;2022-11-21T11:38:47;6.38;99.99
67275;DHT22;55463;52.324;5.122;2022-11-21T11:47:53;6.77;99.99
67275;DHT22;55463;52.324;5.122;2022-11-21T11:50:21;6.73;99.63
67275;DHT22;55463;52.324;5.122;2022-11-21T11:52:49;6.76;99.49
67275;DHT22;55463;52.324;5.122;2022-11-21T11:55:25;6.75;99.31
67275;DHT22;55463;52.324;5.122;2022-11-21T11:57:55;6.71;99.18
67275;DHT22;55463;52.324;5.122;2022-11-21T12:00:41;6.79;99.08
67275;DHT22;55463;52.324;5.122;2022-11-21T12:05:49;6.87;99.03
67275;DHT22;55463;52.324;5.122;2022-11-21T12:08:24;6.94;99.04
67275;DHT22;55463;52.324;5.122;2022-11-21T12:10:58;6.92;98.78
67275;DHT22;55463;52.324;5.122;2022-11-21T12:13:46;7.07;98.93
67275;DHT22;55463;52.324;5.122;2022-11-21T12:16:13;7.25;98.86
67275;DHT22;55463;52.324;5.122;2022-11-21T12:18:49;7.59;98.68
67275;DHT22;55463;52.324;5.122;2022-11-21T12:21:16;7.70;97.98
67275;DHT22;55463;52.324;5.122;2022-11-21T12:23:51;7.72;97.38
67275;DHT22;55463;52.324;5.122;2022-11-21T12:29:37;7.91;97.78
67275;DHT22;55463;52.324;5.122;2022-11-21T12:32:28;8.14;97.14
67275;DHT22;55463;52.324;5.122;2022-11-21T12:37:36;8.18;96.59
67275;DHT22;55463;52.324;5.122;2022-11-21T12:40:34;8.12;95.89
67275;DHT22;55463;52.324;5.122;2022-11-21T12:45:53;8.00;96.02
67275;DHT22;55463;52.324;5.122;2022-11-21T12:49:03;7.91;96.27
67275;DHT22;55463;52.324;5.122;2022-11-21T12:52:03;8.10;96.47
67275;DHT22;55463;52.324;5.122;2022-11-21T12:55:08;8.24;96.20
67275;DHT22;55463;52.324;5.122;2022-11-21T13:00:39;8.35;95.30
67275;DHT22;55463;52.324;5.122;2022-11-21T13:05:58;8.21;95.29
67275;DHT22;55463;52.324;5.122;2022-11-21T13:08:28;8.17;95.29
67275;DHT22;55463;52.324;5.122;2022-11-21T13:11:26;8.17;95.55
67275;DHT22;55463;52.324;5.122;2022-11-21T13:14:23;8.17;95.57
67275;DHT22;55463;52.324;5.122;2022-11-21T13:25:08;8.46;95.48
67275;DHT22;55463;52.324;5.122;2022-11-21T13:27:38;8.46;95.01
67275;DHT22;55463;52.324;5.122;2022-11-21T13:32:45;9.01;94.36
67275;DHT22;55463;52.324;5.122;2022-11-21T13:45:40;9.32;91.69
67275;DHT22;55463;52.324;5.122;2022-11-21T13:48:34;9.04;92.21
67275;DHT22;55463;52.324;5.122;2022-11-21T13:51:39;8.88;92.93
67275;DHT22;55463;52.324;5.122;2022-11-21T14:05:19;8.00;95.65
67275;DHT22;55463;52.324;5.122;2022-11-21T14:07:26;7.84;96.25
67275;DHT22;55463;52.324;5.122;2022-11-21T14:09:54;7.86;96.26
67275;DHT22;55463;52.324;5.122;2022-11-21T14:12:32;7.77;96.30
67275;DHT22;55463;52.324;5.122;2022-11-21T14:17:47;7.61;96.87
67275;DHT22;55463;52.324;5.122;2022-11-21T14:20:56;7.52;97.09
67275;DHT22;55463;52.324;5.122;2022-11-21T14:23:15;7.49;97.30
67275;DHT22;55463;52.324;5.122;2022-11-21T14:25:44;7.44;97.31
67275;DHT22;55463;52.324;5.122;2022-11-21T14:28:16;7.45;97.50
67275;DHT22;55463;52.324;5.122;2022-11-21T14:30:45;7.41;97.47
67275;DHT22;55463;52.324;5.122;2022-11-21T14:35:48;7.35;97.58
67275;DHT22;55463;52.324;5.122;2022-11-21T14:38:14;7.35;97.62
67275;DHT22;55463;52.324;5.122;2022-11-21T14:40:40;7.34;97.72
67275;DHT22;55463;52.324;5.122;2022-11-21T14:43:28;7.31;97.73
67275;DHT22;55463;52.324;5.122;2022-11-21T14:45:54;7.28;97.70
67275;DHT22;55463;52.324;5.122;2022-11-21T14:48:29;7.28;97.92
67275;DHT22;55463;52.324;5.122;2022-11-21T14:50:56;7.27;97.75
67275;DHT22;55463;52.324;5.122;2022-11-21T14:53:23;7.27;97.77
67275;DHT22;55463;52.324;5.122;2022-11-21T14:55:49;7.28;97.83
67275;DHT22;55463;52.324;5.122;2022-11-21T14:58:19;7.27;97.73
67275;DHT22;55463;52.324;5.122;2022-11-21T15:01:06;7.25;97.81
67275;DHT22;55463;52.324;5.122;2022-11-21T15:03:32;7.18;98.01
67275;DHT22;55463;52.324;5.122;2022-11-21T15:06:03;7.20;97.80
67275;DHT22;55463;52.324;5.122;2022-11-21T15:08:33;7.14;97.91
67275;DHT22;55463;52.324;5.122;2022-11-21T15:10:59;7.18;97.88
67275;DHT22;55463;52.324;5.122;2022-11-21T15:13:27;7.13;97.92
67275;DHT22;55463;52.324;5.122;2022-11-21T15:15:55;7.15;97.98
67275;DHT22;55463;52.324;5.122;2022-11-21T15:18:23;7.17;98.00
67275;DHT22;55463;52.324;5.122;2022-11-21T15:20:52;7.14;97.76
67275;DHT22;55463;52.324;5.122;2022-11-21T15:23:34;7.17;97.65
67275;DHT22;55463;52.324;5.122;2022-11-21T15:26:02;7.14;97.69
67275;DHT22;55463;52.324;5.122;2022-11-21T15:28:28;7.10;97.81
67275;DHT22;55463;52.324;5.122;2022-11-21T15:31:17;7.08;97.83
67275;DHT22;55463;52.324;5.122;2022-11-21T15:34:00;7.07;97.87
67275;DHT22;55463;52.324;5.122;2022-11-21T15:36:27;7.08;97.69
67275;DHT22;55463;52.324;5.122;2022-11-21T15:41:27;7.03;97.84
67275;DHT22;55463;52.324;5.122;2022-11-21T15:43:54;7.05;97.70
67275;DHT22;55463;52.324;5.122;2022-11-21T15:46:33;7.07;97.77
67275;DHT22;55463;52.324;5.122;2022-11-21T15:49:01;7.10;97.64
67275;DHT22;55463;52.324;5.122;2022-11-21T15:51:34;7.08;97.57
67275;DHT22;55463;52.324;5.122;2022-11-21T15:54:00;7.03;97.66
67275;DHT22;55463;52.324;5.122;2022-11-21T15:56:26;7.05;97.62
67275;DHT22;55463;52.324;5.122;2022-11-21T15:58:51;7.07;97.55
67275;DHT22;55463;52.324;5.122;2022-11-21T16:01:22;6.99;97.68
67275;DHT22;55463;52.324;5.122;2022-11-21T16:03:49;6.99;97.85
67275;DHT22;55463;52.324;5.122;2022-11-21T16:06:15;6.93;98.01
67275;DHT22;55463;52.324;5.122;2022-11-21T16:08:41;6.97;98.08
67275;DHT22;55463;52.324;5.122;2022-11-21T16:11:34;6.93;98.13
67275;DHT22;55463;52.324;5.122;2022-11-21T16:14:02;6.96;98.12
67275;DHT22;55463;52.324;5.122;2022-11-21T16:16:30;6.87;98.20
67275;DHT22;55463;52.324;5.122;2022-11-21T16:18:56;6.92;98.11
67275;DHT22;55463;52.324;5.122;2022-11-21T16:21:22;6.86;98.19
67275;DHT22;55463;52.324;5.122;2022-11-21T16:23:48;6.87;98.10
67275;DHT22;55463;52.324;5.122;2022-11-21T16:26:14;6.85;98.03
67275;DHT22;55463;52.324;5.122;2022-11-21T16:28:39;6.83;98.08
67275;DHT22;55463;52.324;5.122;2022-11-21T16:31:05;6.82;98.04
67275;DHT22;55463;52.324;5.122;2022-11-21T16:33:32;6.80;98.02
67275;DHT22;55463;52.324;5.122;2022-11-21T16:35:57;6.87;97.70
67275;DHT22;55463;52.324;5.122;2022-11-21T16:38:25;6.86;97.60
67275;DHT22;55463;52.324;5.122;2022-11-21T16:40:56;6.89;97.59
67275;DHT22;55463;52.324;5.122;2022-11-21T16:43:22;6.89;97.45
67275;DHT22;55463;52.324;5.122;2022-11-21T16:45:48;6.85;97.41
67275;DHT22;55463;52.324;5.122;2022-11-21T16:48:14;6.85;97.45
67275;DHT22;55463;52.324;5.122;2022-11-21T16:50:39;6.85;97.38
67275;DHT22;55463;52.324;5.122;2022-11-21T16:53:04;6.85;97.41
67275;DHT22;55463;52.324;5.122;2022-11-21T16:55:30;6.85;97.35
67275;DHT22;55463;52.324;5.122;2022-11-21T16:57:55;6.76;97.43
67275;DHT22;55463;52.324;5.122;2022-11-21T17:00:23;6.79;97.49
67275;DHT22;55463;52.324;5.122;2022-11-21T17:02:49;6.76;97.45
67275;DHT22;55463;52.324;5.122;2022-11-21T17:05:15;6.79;97.59
67275;DHT22;55463;52.324;5.122;2022-11-21T17:07:40;6.77;97.54
67275;DHT22;55463;52.324;5.122;2022-11-21T17:10:06;6.73;97.57
67275;DHT22;55463;52.324;5.122;2022-11-21T17:12:39;6.73;97.59
67275;DHT22;55463;52.324;5.122;2022-11-21T17:15:07;6.75;97.60
67275;DHT22;55463;52.324;5.122;2022-11-21T17:17:33;6.71;97.68
67275;DHT22;55463;52.324;5.122;2022-11-21T17:19:59;6.72;97.62
67275;DHT22;55463;52.324;5.122;2022-11-21T17:22:24;6.68;97.61
67275;DHT22;55463;52.324;5.122;2022-11-21T17:24:51;6.66;97.75
67275;DHT22;55463;52.324;5.122;2022-11-21T17:27:18;6.68;97.72
67275;DHT22;55463;52.324;5.122;2022-11-21T17:29:43;6.65;97.76
67275;DHT22;55463;52.324;5.122;2022-11-21T17:32:08;6.65;97.52
67275;DHT22;55463;52.324;5.122;2022-11-21T17:34:34;6.65;97.55
67275;DHT22;55463;52.324;5.122;2022-11-21T17:36:59;6.61;97.64
67275;DHT22;55463;52.324;5.122;2022-11-21T17:39:26;6.58;97.70